sensor_id;sensor_type;location;lat;lon;timestamp;temperature;humidity
1129;DHT22;553;51.038;7.216;2023-04-24T00:01:04;11.80;99.90
1129;DHT22;553;51.038;7.216;2023-04-24T00:03:34;11.90;99.90
1129;DHT22;553;51.038;7.216;2023-04-24T00:06:01;11.80;99.90
1129;DHT22;553;51.038;7.216;2023-04-24T00:08:29;11.70;99.90
1129;DHT22;553;51.038;7.216;2023-04-24T00:10:56;11.80;99.90
1129;DHT22;553;51.038;7.216;2023-04-24T00:13:24;11.80;99.90
1129;DHT22;553;51.038;7.216;2023-04-24T00:15:51;11.80;99.90
1129;DHT22;553;51.038;7.216;2023-04-24T00:18:17;11.70;99.90
1129;DHT22;553;51.038;7.216;2023-04-24T00:20:44;11.70;99.90
1129;DHT22;553;51.038;7.216;2023-04-24T00:23:13;11.80;99.90
1129;DHT22;553;51.038;7.216;2023-04-24T00:25:39;11.70;99.90
1129;DHT22;553;51.038;7.216;2023-04-24T00:28:07;11.70;99.90
1129;DHT22;553;51.038;7.216;2023-04-24T00:30:34;11.70;99.90
1129;DHT22;553;51.038;7.216;2023-04-24T00:33:00;11.70;99.90
1129;DHT22;553;51.038;7.216;2023-04-24T00:35:27;11.80;99.90
1129;DHT22;553;51.038;7.216;2023-04-24T00:37:54;11.80;99.90
1129;DHT22;553;51.038;7.216;2023-04-24T00:40:21;11.80;99.90
1129;DHT22;553;51.038;7.216;2023-04-24T00:42:47;11.90;99.90
1129;DHT22;553;51.038;7.216;2023-04-24T00:45:14;11.90;99.90
1129;DHT22;553;51.038;7.216;2023-04-24T00:47:41;11.80;99.90
1129;DHT22;553;51.038;7.216;2023-04-24T00:50:08;11.90;99.90
1129;DHT22;553;51.038;7.216;2023-04-24T00:52:35;11.80;99.90
1129;DHT22;553;51.038;7.216;2023-04-24T00:55:02;11.80;99.90
1129;DHT22;553;51.038;7.216;2023-04-24T00:57:30;11.90;99.90
1129;DHT22;553;51.038;7.216;2023-04-24T00:59:57;11.80;99.90
1129;DHT22;553;51.038;7.216;2023-04-24T01:02:24;11.80;99.90
1129;DHT22;553;51.038;7.216;2023-04-24T01:04:51;11.80;99.90
1129;DHT22;553;51.038;7.216;2023-04-24T01:07:21;11.80;99.90
1129;DHT22;553;51.038;7.216;2023-04-24T01:09:50;11.80;99.90
1129;DHT22;553;51.038;7.216;2023-04-24T01:12:19;11.80;99.90
1129;DHT22;553;51.038;7.216;2023-04-24T01:14:46;11.80;99.90
1129;DHT22;553;51.038;7.216;2023-04-24T01:17:14;11.80;99.90
1129;DHT22;553;51.038;7.216;2023-04-24T01:19:41;11.70;99.90
1129;DHT22;553;51.038;7.216;2023-04-24T01:22:16;11.70;99.90
1129;DHT22;553;51.038;7.216;2023-04-24T01:24:43;11.70;99.90
1129;DHT22;553;51.038;7.216;2023-04-24T01:27:11;11.70;99.90
1129;DHT22;553;51.038;7.216;2023-04-24T01:29:39;11.70;99.90
1129;DHT22;553;51.038;7.216;2023-04-24T01:32:07;11.60;99.90
1129;DHT22;553;51.038;7.216;2023-04-24T01:34:34;11.60;99.90
1129;DHT22;553;51.038;7.216;2023-04-24T01:37:01;11.70;99.90
1129;DHT22;553;51.038;7.216;2023-04-24T01:39:27;11.70;99.90
1129;DHT22;553;51.038;7.216;2023-04-24T01:41:55;11.70;99.90
1129;DHT22;553;51.038;7.216;2023-04-24T01:44:22;11.60;99.90
1129;DHT22;553;51.038;7.216;2023-04-24T01:46:49;11.60;99.30
1129;DHT22;553;51.038;7.216;2023-04-24T01:49:17;11.60;98.90
1129;DHT22;553;51.038;7.216;2023-04-24T01:51:44;11.60;98.70
1129;DHT22;553;51.038;7.216;2023-04-24T01:54:12;11.50;98.20
1129;DHT22;553;51.038;7.216;2023-04-24T01:56:42;11.40;98.60
1129;DHT22;553;51.038;7.216;2023-04-24T01:59:12;11.40;98.50
1129;DHT22;553;51.038;7.216;2023-04-24T02:01:39;11.40;98.10
1129;DHT22;553;51.038;7.216;2023-04-24T02:04:06;11.30;98.00
1129;DHT22;553;51.038;7.216;2023-04-24T02:06:35;11.10;96.50
1129;DHT22;553;51.038;7.216;2023-04-24T02:09:02;11.00;96.40
1129;DHT22;553;51.038;7.216;2023-04-24T02:11:30;10.90;96.40
1129;DHT22;553;51.038;7.216;2023-04-24T02:13:57;10.90;96.80
1129;DHT22;553;51.038;7.216;2023-04-24T02:16:23;10.80;96.70
1129;DHT22;553;51.038;7.216;2023-04-24T02:18:51;10.90;96.50
1129;DHT22;553;51.038;7.216;2023-04-24T02:21:17;10.80;97.10
1129;DHT22;553;51.038;7.216;2023-04-24T02:23:44;10.80;96.90
1129;DHT22;553;51.038;7.216;2023-04-24T02:26:12;10.70;96.80
1129;DHT22;553;51.038;7.216;2023-04-24T02:28:39;10.70;97.00
1129;DHT22;553;51.038;7.216;2023-04-24T02:31:06;10.70;97.40
1129;DHT22;553;51.038;7.216;2023-04-24T02:33:33;10.70;97.50
1129;DHT22;553;51.038;7.216;2023-04-24T02:35:59;10.70;97.40
1129;DHT22;553;51.038;7.216;2023-04-24T02:38:26;10.60;97.90
1129;DHT22;553;51.038;7.216;2023-04-24T02:40:53;10.50;98.30
1129;DHT22;553;51.038;7.216;2023-04-24T02:43:20;10.40;98.80
1129;DHT22;553;51.038;7.216;2023-04-24T02:45:47;10.40;99.10
1129;DHT22;553;51.038;7.216;2023-04-24T02:48:14;10.20;99.60
1129;DHT22;553;51.038;7.216;2023-04-24T02:50:42;10.30;99.70
1129;DHT22;553;51.038;7.216;2023-04-24T02:53:08;10.20;99.70
1129;DHT22;553;51.038;7.216;2023-04-24T02:55:35;10.20;99.70
1129;DHT22;553;51.038;7.216;2023-04-24T02:58:02;10.10;99.60
1129;DHT22;553;51.038;7.216;2023-04-24T03:00:29;10.00;99.90
1129;DHT22;553;51.038;7.216;2023-04-24T03:02:56;10.10;99.90
1129;DHT22;553;51.038;7.216;2023-04-24T03:05:23;10.10;99.90
1129;DHT22;553;51.038;7.216;2023-04-24T03:07:50;10.20;99.90
1129;DHT22;553;51.038;7.216;2023-04-24T03:10:20;10.20;99.80
1129;DHT22;553;51.038;7.216;2023-04-24T03:12:49;10.10;99.90
1129;DHT22;553;51.038;7.216;2023-04-24T03:15:17;10.10;99.90
1129;DHT22;553;51.038;7.216;2023-04-24T03:17:44;10.10;99.90
1129;DHT22;553;51.038;7.216;2023-04-24T03:20:11;10.20;99.90
1129;DHT22;553;51.038;7.216;2023-04-24T03:22:38;10.10;99.90
1129;DHT22;553;51.038;7.216;2023-04-24T03:25:07;10.20;99.90
1129;DHT22;553;51.038;7.216;2023-04-24T03:27:35;10.10;99.90
1129;DHT22;553;51.038;7.216;2023-04-24T03:30:07;10.10;99.90
1129;DHT22;553;51.038;7.216;2023-04-24T03:32:46;10.20;99.90
1129;DHT22;553;51.038;7.216;2023-04-24T03:35:16;10.20;99.80
1129;DHT22;553;51.038;7.216;2023-04-24T03:37:43;10.10;99.90
1129;DHT22;553;51.038;7.216;2023-04-24T03:40:33;10.10;99.90
1129;DHT22;553;51.038;7.216;2023-04-24T03:43:01;10.10;99.90
1129;DHT22;553;51.038;7.216;2023-04-24T03:45:28;10.10;99.90
1129;DHT22;553;51.038;7.216;2023-04-24T03:47:56;10.10;99.90
1129;DHT22;553;51.038;7.216;2023-04-24T03:50:23;10.10;99.90
1129;DHT22;553;51.038;7.216;2023-04-24T03:52:50;10.10;99.90
1129;DHT22;553;51.038;7.216;2023-04-24T03:55:28;10.10;99.90
1129;DHT22;553;51.038;7.216;2023-04-24T03:57:54;10.10;99.90
1129;DHT22;553;51.038;7.216;2023-04-24T04:00:21;10.10;99.80
1129;DHT22;553;51.038;7.216;2023-04-24T04:02:59;10.10;99.60
1129;DHT22;553;51.038;7.216;2023-04-24T04:05:26;10.00;99.40
1129;DHT22;553;51.038;7.216;2023-04-24T04:07:53;10.10;99.70
1129;DHT22;553;51.038;7.216;2023-04-24T04:10:20;10.10;99.80
1129;DHT22;553;51.038;7.216;2023-04-24T04:12:46;10.10;99.50
1129;DHT22;553;51.038;7.216;2023-04-24T04:15:13;10.10;99.60
1129;DHT22;553;51.038;7.216;2023-04-24T04:17:40;10.10;99.10
1129;DHT22;553;51.038;7.216;2023-04-24T04:20:07;10.10;98.70
1129;DHT22;553;51.038;7.216;2023-04-24T04:22:37;10.00;99.30
1129;DHT22;553;51.038;7.216;2023-04-24T04:25:07;9.90;99.10
1129;DHT22;553;51.038;7.216;2023-04-24T04:27:35;9.90;99.40
1129;DHT22;553;51.038;7.216;2023-04-24T04:30:08;9.90;99.30
1129;DHT22;553;51.038;7.216;2023-04-24T04:32:46;9.90;99.30
1129;DHT22;553;51.038;7.216;2023-04-24T04:35:13;9.90;99.10
1129;DHT22;553;51.038;7.216;2023-04-24T04:37:40;9.90;99.00
1129;DHT22;553;51.038;7.216;2023-04-24T04:40:27;9.90;99.30
1129;DHT22;553;51.038;7.216;2023-04-24T04:43:00;10.00;99.10
1129;DHT22;553;51.038;7.216;2023-04-24T04:45:31;9.90;99.30
1129;DHT22;553;51.038;7.216;2023-04-24T04:48:17;10.00;99.50
1129;DHT22;553;51.038;7.216;2023-04-24T04:50:45;9.90;99.90
1129;DHT22;553;51.038;7.216;2023-04-24T04:53:12;9.90;99.80
1129;DHT22;553;51.038;7.216;2023-04-24T04:55:38;9.90;99.90
1129;DHT22;553;51.038;7.216;2023-04-24T04:58:09;9.90;99.60
1129;DHT22;553;51.038;7.216;2023-04-24T05:00:36;9.80;99.70
1129;DHT22;553;51.038;7.216;2023-04-24T05:03:13;9.80;99.90
1129;DHT22;553;51.038;7.216;2023-04-24T05:05:44;9.80;99.90
1129;DHT22;553;51.038;7.216;2023-04-24T05:08:13;9.70;99.90
1129;DHT22;553;51.038;7.216;2023-04-24T05:10:44;9.70;99.90
1129;DHT22;553;51.038;7.216;2023-04-24T05:13:10;9.80;99.90
1129;DHT22;553;51.038;7.216;2023-04-24T05:15:39;9.80;99.90
1129;DHT22;553;51.038;7.216;2023-04-24T05:18:06;9.80;99.90
1129;DHT22;553;51.038;7.216;2023-04-24T05:20:33;9.80;99.90
1129;DHT22;553;51.038;7.216;2023-04-24T05:23:00;9.70;99.90
1129;DHT22;553;51.038;7.216;2023-04-24T05:25:29;9.80;99.90
1129;DHT22;553;51.038;7.216;2023-04-24T05:28:04;9.80;99.90
1129;DHT22;553;51.038;7.216;2023-04-24T05:30:32;9.70;99.90
1129;DHT22;553;51.038;7.216;2023-04-24T05:33:00;9.80;99.90
1129;DHT22;553;51.038;7.216;2023-04-24T05:35:29;9.80;99.90
1129;DHT22;553;51.038;7.216;2023-04-24T05:37:56;9.80;99.90
1129;DHT22;553;51.038;7.216;2023-04-24T05:40:23;9.80;99.90
1129;DHT22;553;51.038;7.216;2023-04-24T05:42:50;9.70;99.90
1129;DHT22;553;51.038;7.216;2023-04-24T05:45:16;9.70;99.90
1129;DHT22;553;51.038;7.216;2023-04-24T05:47:43;9.70;99.90
1129;DHT22;553;51.038;7.216;2023-04-24T05:50:11;9.70;99.90
1129;DHT22;553;51.038;7.216;2023-04-24T05:52:37;9.70;99.90
1129;DHT22;553;51.038;7.216;2023-04-24T05:55:12;9.60;99.90
1129;DHT22;553;51.038;7.216;2023-04-24T05:57:41;9.60;99.90
1129;DHT22;553;51.038;7.216;2023-04-24T06:00:09;9.50;99.90
1129;DHT22;553;51.038;7.216;2023-04-24T06:02:49;9.30;99.90
1129;DHT22;553;51.038;7.216;2023-04-24T06:05:16;9.30;99.90
1129;DHT22;553;51.038;7.216;2023-04-24T06:07:43;9.30;99.90
1129;DHT22;553;51.038;7.216;2023-04-24T06:10:10;9.20;99.90
1129;DHT22;553;51.038;7.216;2023-04-24T06:12:41;9.20;99.90
1129;DHT22;553;51.038;7.216;2023-04-24T06:15:14;9.20;99.90
1129;DHT22;553;51.038;7.216;2023-04-24T06:18:07;9.10;99.90
1129;DHT22;553;51.038;7.216;2023-04-24T06:20:35;9.20;99.90
1129;DHT22;553;51.038;7.216;2023-04-24T06:23:02;9.10;99.90
1129;DHT22;553;51.038;7.216;2023-04-24T06:25:29;9.10;99.90
1129;DHT22;553;51.038;7.216;2023-04-24T06:27:56;9.00;99.90
1129;DHT22;553;51.038;7.216;2023-04-24T06:30:23;9.00;99.90
1129;DHT22;553;51.038;7.216;2023-04-24T06:32:50;8.90;99.90
1129;DHT22;553;51.038;7.216;2023-04-24T06:35:17;9.00;99.90
1129;DHT22;553;51.038;7.216;2023-04-24T06:37:43;9.00;99.90
1129;DHT22;553;51.038;7.216;2023-04-24T06:40:10;9.00;99.90
1129;DHT22;553;51.038;7.216;2023-04-24T06:42:37;9.10;99.90
1129;DHT22;553;51.038;7.216;2023-04-24T06:45:07;9.00;99.90
1129;DHT22;553;51.038;7.216;2023-04-24T06:47:35;9.10;99.90
1129;DHT22;553;51.038;7.216;2023-04-24T06:50:01;9.00;99.90
1129;DHT22;553;51.038;7.216;2023-04-24T06:52:28;9.00;99.90
1129;DHT22;553;51.038;7.216;2023-04-24T06:55:02;9.00;99.90
1129;DHT22;553;51.038;7.216;2023-04-24T06:57:31;9.00;99.90
1129;DHT22;553;51.038;7.216;2023-04-24T06:59:58;9.00;99.90
1129;DHT22;553;51.038;7.216;2023-04-24T07:02:25;8.80;99.90
1129;DHT22;553;51.038;7.216;2023-04-24T07:04:52;8.70;99.90
1129;DHT22;553;51.038;7.216;2023-04-24T07:07:19;8.70;99.90
1129;DHT22;553;51.038;7.216;2023-04-24T07:09:46;8.60;99.90
1129;DHT22;553;51.038;7.216;2023-04-24T07:12:13;8.60;99.90
1129;DHT22;553;51.038;7.216;2023-04-24T07:14:40;8.60;99.90
1129;DHT22;553;51.038;7.216;2023-04-24T07:17:07;8.60;99.90
1129;DHT22;553;51.038;7.216;2023-04-24T07:19:34;8.70;99.90
1129;DHT22;553;51.038;7.216;2023-04-24T07:22:01;8.60;99.90
1129;DHT22;553;51.038;7.216;2023-04-24T07:24:30;8.60;99.90
1129;DHT22;553;51.038;7.216;2023-04-24T07:26:58;8.70;99.90
1129;DHT22;553;51.038;7.216;2023-04-24T07:29:27;8.80;99.90
1129;DHT22;553;51.038;7.216;2023-04-24T07:31:54;8.80;99.90
1129;DHT22;553;51.038;7.216;2023-04-24T07:34:20;8.80;99.90
1129;DHT22;553;51.038;7.216;2023-04-24T07:36:47;8.90;99.90
1129;DHT22;553;51.038;7.216;2023-04-24T07:39:14;8.90;99.90
1129;DHT22;553;51.038;7.216;2023-04-24T07:41:41;8.80;99.90
1129;DHT22;553;51.038;7.216;2023-04-24T07:44:08;8.80;99.90
1129;DHT22;553;51.038;7.216;2023-04-24T07:46:34;8.80;99.90
1129;DHT22;553;51.038;7.216;2023-04-24T07:49:01;8.70;99.90
1129;DHT22;553;51.038;7.216;2023-04-24T07:51:40;8.70;99.90
1129;DHT22;553;51.038;7.216;2023-04-24T07:54:07;8.80;99.90
1129;DHT22;553;51.038;7.216;2023-04-24T07:56:34;8.70;99.90
1129;DHT22;553;51.038;7.216;2023-04-24T07:59:06;8.60;99.90
1129;DHT22;553;51.038;7.216;2023-04-24T08:01:32;8.50;99.90
1129;DHT22;553;51.038;7.216;2023-04-24T08:03:59;8.50;99.90
1129;DHT22;553;51.038;7.216;2023-04-24T08:06:26;8.30;99.90
1129;DHT22;553;51.038;7.216;2023-04-24T08:08:57;8.30;99.90
1129;DHT22;553;51.038;7.216;2023-04-24T08:11:24;8.30;99.90
1129;DHT22;553;51.038;7.216;2023-04-24T08:13:51;8.20;99.90
1129;DHT22;553;51.038;7.216;2023-04-24T08:16:17;8.10;99.90
1129;DHT22;553;51.038;7.216;2023-04-24T08:18:44;8.10;99.90
1129;DHT22;553;51.038;7.216;2023-04-24T08:21:11;8.00;99.90
1129;DHT22;553;51.038;7.216;2023-04-24T08:23:39;8.00;99.90
1129;DHT22;553;51.038;7.216;2023-04-24T08:26:06;8.10;99.90
1129;DHT22;553;51.038;7.216;2023-04-24T08:28:33;8.10;99.90
1129;DHT22;553;51.038;7.216;2023-04-24T08:31:00;8.00;99.90
1129;DHT22;553;51.038;7.216;2023-04-24T08:33:27;8.00;99.90
1129;DHT22;553;51.038;7.216;2023-04-24T08:35:59;7.90;99.90
1129;DHT22;553;51.038;7.216;2023-04-24T08:38:27;7.90;99.90
1129;DHT22;553;51.038;7.216;2023-04-24T08:40:54;7.80;99.90
1129;DHT22;553;51.038;7.216;2023-04-24T08:43:22;7.80;99.90
1129;DHT22;553;51.038;7.216;2023-04-24T08:45:49;7.70;99.90
1129;DHT22;553;51.038;7.216;2023-04-24T08:48:17;7.70;99.90
1129;DHT22;553;51.038;7.216;2023-04-24T08:50:57;7.70;99.90
1129;DHT22;553;51.038;7.216;2023-04-24T08:53:25;7.70;99.90
1129;DHT22;553;51.038;7.216;2023-04-24T08:55:54;7.70;99.90
1129;DHT22;553;51.038;7.216;2023-04-24T08:58:21;7.80;99.90
1129;DHT22;553;51.038;7.216;2023-04-24T09:00:48;7.80;99.90
1129;DHT22;553;51.038;7.216;2023-04-24T09:03:16;7.80;99.90
1129;DHT22;553;51.038;7.216;2023-04-24T09:05:44;7.80;99.90
1129;DHT22;553;51.038;7.216;2023-04-24T09:08:16;7.80;99.90
1129;DHT22;553;51.038;7.216;2023-04-24T09:10:44;7.70;99.90
1129;DHT22;553;51.038;7.216;2023-04-24T09:13:11;7.70;99.90
1129;DHT22;553;51.038;7.216;2023-04-24T09:15:39;7.60;99.90
1129;DHT22;553;51.038;7.216;2023-04-24T09:18:06;7.60;99.90
1129;DHT22;553;51.038;7.216;2023-04-24T09:20:33;7.50;99.90
1129;DHT22;553;51.038;7.216;2023-04-24T09:23:02;7.60;99.90
1129;DHT22;553;51.038;7.216;2023-04-24T09:25:33;7.50;99.90
1129;DHT22;553;51.038;7.216;2023-04-24T09:28:02;7.50;99.90
1129;DHT22;553;51.038;7.216;2023-04-24T09:30:29;7.60;99.90
1129;DHT22;553;51.038;7.216;2023-04-24T09:33:10;7.60;99.90
1129;DHT22;553;51.038;7.216;2023-04-24T09:35:40;7.60;99.90
1129;DHT22;553;51.038;7.216;2023-04-24T09:38:07;7.60;99.90
1129;DHT22;553;51.038;7.216;2023-04-24T09:40:35;7.60;99.90
1129;DHT22;553;51.038;7.216;2023-04-24T09:43:03;7.70;99.90
1129;DHT22;553;51.038;7.216;2023-04-24T09:45:37;7.70;99.90
1129;DHT22;553;51.038;7.216;2023-04-24T09:48:09;7.70;99.90
1129;DHT22;553;51.038;7.216;2023-04-24T09:50:36;7.70;99.90
1129;DHT22;553;51.038;7.216;2023-04-24T09:53:04;7.70;99.90
1129;DHT22;553;51.038;7.216;2023-04-24T09:55:33;7.70;99.90
1129;DHT22;553;51.038;7.216;2023-04-24T09:58:00;7.70;99.90
1129;DHT22;553;51.038;7.216;2023-04-24T10:00:29;7.60;99.90
1129;DHT22;553;51.038;7.216;2023-04-24T10:02:58;7.60;99.90
1129;DHT22;553;51.038;7.216;2023-04-24T10:05:28;7.70;99.90
1129;DHT22;553;51.038;7.216;2023-04-24T10:08:10;7.70;99.90
1129;DHT22;553;51.038;7.216;2023-04-24T10:10:42;7.70;99.90
1129;DHT22;553;51.038;7.216;2023-04-24T10:13:10;7.80;99.90
1129;DHT22;553;51.038;7.216;2023-04-24T10:15:37;7.90;99.90
1129;DHT22;553;51.038;7.216;2023-04-24T10:18:05;8.00;99.90
1129;DHT22;553;51.038;7.216;2023-04-24T10:20:34;8.10;99.90
1129;DHT22;553;51.038;7.216;2023-04-24T10:23:02;8.10;99.90
1129;DHT22;553;51.038;7.216;2023-04-24T10:25:32;8.10;99.90
1129;DHT22;553;51.038;7.216;2023-04-24T10:28:01;8.20;99.90
1129;DHT22;553;51.038;7.216;2023-04-24T10:30:33;8.10;99.90
1129;DHT22;553;51.038;7.216;2023-04-24T10:33:03;8.30;99.90
1129;DHT22;553;51.038;7.216;2023-04-24T10:35:32;8.30;99.90
1129;DHT22;553;51.038;7.216;2023-04-24T10:38:13;8.30;99.90
1129;DHT22;553;51.038;7.216;2023-04-24T10:40:42;8.30;99.90
1129;DHT22;553;51.038;7.216;2023-04-24T10:43:09;8.20;99.90
1129;DHT22;553;51.038;7.216;2023-04-24T10:45:39;8.40;99.90
1129;DHT22;553;51.038;7.216;2023-04-24T10:48:07;8.40;99.90
1129;DHT22;553;51.038;7.216;2023-04-24T10:50:47;8.50;99.90
1129;DHT22;553;51.038;7.216;2023-04-24T10:53:19;8.50;99.90
1129;DHT22;553;51.038;7.216;2023-04-24T10:55:49;8.60;99.90
1129;DHT22;553;51.038;7.216;2023-04-24T10:58:23;8.60;99.90
1129;DHT22;553;51.038;7.216;2023-04-24T11:01:00;8.70;99.90
1129;DHT22;553;51.038;7.216;2023-04-24T11:03:29;8.80;99.90
1129;DHT22;553;51.038;7.216;2023-04-24T11:06:05;8.80;99.90
1129;DHT22;553;51.038;7.216;2023-04-24T11:08:37;8.90;99.90
1129;DHT22;553;51.038;7.216;2023-04-24T11:16:45;8.80;99.90
1129;DHT22;553;51.038;7.216;2023-04-24T11:19:20;8.80;99.90
1129;DHT22;553;51.038;7.216;2023-04-24T11:24:31;8.80;99.90
1129;DHT22;553;51.038;7.216;2023-04-24T11:29:59;9.00;99.90
1129;DHT22;553;51.038;7.216;2023-04-24T11:35:01;9.00;99.90
1129;DHT22;553;51.038;7.216;2023-04-24T11:37:43;9.00;99.90
1129;DHT22;553;51.038;7.216;2023-04-24T11:40:12;9.10;99.90
1129;DHT22;553;51.038;7.216;2023-04-24T11:42:41;9.20;99.90
1129;DHT22;553;51.038;7.216;2023-04-24T11:47:36;9.30;99.90
1129;DHT22;553;51.038;7.216;2023-04-24T11:50:05;9.40;99.90
1129;DHT22;553;51.038;7.216;2023-04-24T11:52:33;9.60;99.90
1129;DHT22;553;51.038;7.216;2023-04-24T11:55:03;9.70;99.90
1129;DHT22;553;51.038;7.216;2023-04-24T11:57:30;9.70;99.90
1129;DHT22;553;51.038;7.216;2023-04-24T12:00:03;9.90;99.90
1129;DHT22;553;51.038;7.216;2023-04-24T12:02:37;10.00;99.90
1129;DHT22;553;51.038;7.216;2023-04-24T12:05:06;10.00;99.90
1129;DHT22;553;51.038;7.216;2023-04-24T12:07:41;10.10;99.90
1129;DHT22;553;51.038;7.216;2023-04-24T12:10:11;9.90;99.90
1129;DHT22;553;51.038;7.216;2023-04-24T12:12:38;10.00;99.90
1129;DHT22;553;51.038;7.216;2023-04-24T12:15:08;10.10;99.90
1129;DHT22;553;51.038;7.216;2023-04-24T12:17:36;10.30;99.90
1129;DHT22;553;51.038;7.216;2023-04-24T12:20:08;10.50;99.90
1129;DHT22;553;51.038;7.216;2023-04-24T12:22:52;10.60;99.90
1129;DHT22;553;51.038;7.216;2023-04-24T12:25:30;10.70;99.90
1129;DHT22;553;51.038;7.216;2023-04-24T12:30:31;10.50;99.90
1129;DHT22;553;51.038;7.216;2023-04-24T12:33:00;10.30;99.90
1129;DHT22;553;51.038;7.216;2023-04-24T12:35:29;10.20;99.90
1129;DHT22;553;51.038;7.216;2023-04-24T12:38:08;10.20;99.90
1129;DHT22;553;51.038;7.216;2023-04-24T12:40:35;10.30;99.90
1129;DHT22;553;51.038;7.216;2023-04-24T12:43:12;10.30;99.90
1129;DHT22;553;51.038;7.216;2023-04-24T12:45:38;10.30;99.90
1129;DHT22;553;51.038;7.216;2023-04-24T12:48:06;10.20;99.90
1129;DHT22;553;51.038;7.216;2023-04-24T12:50:32;10.10;99.90
1129;DHT22;553;51.038;7.216;2023-04-24T12:53:00;10.10;99.90
1129;DHT22;553;51.038;7.216;2023-04-24T12:55:26;10.20;99.90
1129;DHT22;553;51.038;7.216;2023-04-24T12:57:53;10.10;99.90
1129;DHT22;553;51.038;7.216;2023-04-24T13:00:21;10.10;99.90
1129;DHT22;553;51.038;7.216;2023-04-24T13:02:48;10.20;99.90
1129;DHT22;553;51.038;7.216;2023-04-24T13:05:15;10.30;99.90
1129;DHT22;553;51.038;7.216;2023-04-24T13:07:44;10.30;99.90
1129;DHT22;553;51.038;7.216;2023-04-24T13:10:10;10.50;99.90
1129;DHT22;553;51.038;7.216;2023-04-24T13:12:37;10.60;99.90
1129;DHT22;553;51.038;7.216;2023-04-24T13:15:05;10.70;99.90
1129;DHT22;553;51.038;7.216;2023-04-24T13:17:32;10.80;99.90
1129;DHT22;553;51.038;7.216;2023-04-24T13:20:00;10.80;99.90
1129;DHT22;553;51.038;7.216;2023-04-24T13:22:27;10.90;99.90
1129;DHT22;553;51.038;7.216;2023-04-24T13:24:54;11.00;99.90
1129;DHT22;553;51.038;7.216;2023-04-24T13:27:22;11.10;99.20
1129;DHT22;553;51.038;7.216;2023-04-24T13:29:49;11.10;98.80
1129;DHT22;553;51.038;7.216;2023-04-24T13:32:16;11.00;98.20
1129;DHT22;553;51.038;7.216;2023-04-24T13:34:44;11.20;99.60
1129;DHT22;553;51.038;7.216;2023-04-24T13:37:11;11.30;98.20
1129;DHT22;553;51.038;7.216;2023-04-24T13:39:38;11.20;98.00
1129;DHT22;553;51.038;7.216;2023-04-24T13:42:04;11.20;98.00
1129;DHT22;553;51.038;7.216;2023-04-24T13:44:31;11.20;97.70
1129;DHT22;553;51.038;7.216;2023-04-24T13:46:58;11.20;99.00
1129;DHT22;553;51.038;7.216;2023-04-24T13:49:25;11.40;98.70
1129;DHT22;553;51.038;7.216;2023-04-24T13:51:54;11.40;98.80
1129;DHT22;553;51.038;7.216;2023-04-24T13:54:22;11.60;98.00
1129;DHT22;553;51.038;7.216;2023-04-24T13:56:52;11.60;97.80
1129;DHT22;553;51.038;7.216;2023-04-24T13:59:20;11.50;98.30
1129;DHT22;553;51.038;7.216;2023-04-24T14:01:48;11.50;99.60
1129;DHT22;553;51.038;7.216;2023-04-24T14:04:15;11.60;98.20
1129;DHT22;553;51.038;7.216;2023-04-24T14:06:43;11.70;97.50
1129;DHT22;553;51.038;7.216;2023-04-24T14:09:10;11.60;96.70
1129;DHT22;553;51.038;7.216;2023-04-24T14:11:37;11.50;97.20
1129;DHT22;553;51.038;7.216;2023-04-24T14:14:04;11.40;97.70
1129;DHT22;553;51.038;7.216;2023-04-24T14:16:31;11.30;97.60
1129;DHT22;553;51.038;7.216;2023-04-24T14:18:58;11.20;97.60
1129;DHT22;553;51.038;7.216;2023-04-24T14:21:25;11.10;97.20
1129;DHT22;553;51.038;7.216;2023-04-24T14:23:52;11.00;95.90
1129;DHT22;553;51.038;7.216;2023-04-24T14:26:19;11.00;94.90
1129;DHT22;553;51.038;7.216;2023-04-24T14:28:46;11.00;94.50
1129;DHT22;553;51.038;7.216;2023-04-24T14:31:13;11.00;94.70
1129;DHT22;553;51.038;7.216;2023-04-24T14:33:39;11.00;95.60
1129;DHT22;553;51.038;7.216;2023-04-24T14:36:06;11.00;94.70
1129;DHT22;553;51.038;7.216;2023-04-24T14:38:34;11.10;96.10
1129;DHT22;553;51.038;7.216;2023-04-24T14:41:00;11.10;95.00
1129;DHT22;553;51.038;7.216;2023-04-24T14:43:33;11.20;94.70
1129;DHT22;553;51.038;7.216;2023-04-24T14:46:02;11.20;94.70
1129;DHT22;553;51.038;7.216;2023-04-24T14:48:29;11.40;93.60
1129;DHT22;553;51.038;7.216;2023-04-24T14:50:56;11.30;93.80
1129;DHT22;553;51.038;7.216;2023-04-24T14:53:23;11.30;93.40
1129;DHT22;553;51.038;7.216;2023-04-24T14:55:50;11.20;94.80
1129;DHT22;553;51.038;7.216;2023-04-24T14:58:17;11.30;94.80
1129;DHT22;553;51.038;7.216;2023-04-24T15:00:43;11.40;93.30
1129;DHT22;553;51.038;7.216;2023-04-24T15:03:10;11.50;94.00
1129;DHT22;553;51.038;7.216;2023-04-24T15:05:37;11.50;93.90
1129;DHT22;553;51.038;7.216;2023-04-24T15:08:04;11.40;93.90
1129;DHT22;553;51.038;7.216;2023-04-24T15:10:32;11.30;94.30
1129;DHT22;553;51.038;7.216;2023-04-24T15:12:59;11.40;93.50
1129;DHT22;553;51.038;7.216;2023-04-24T15:15:27;11.40;93.80
1129;DHT22;553;51.038;7.216;2023-04-24T15:17:53;11.40;94.00
1129;DHT22;553;51.038;7.216;2023-04-24T15:20:20;11.50;94.90
1129;DHT22;553;51.038;7.216;2023-04-24T15:22:47;11.60;93.90
1129;DHT22;553;51.038;7.216;2023-04-24T15:25:14;11.50;92.30
1129;DHT22;553;51.038;7.216;2023-04-24T15:27:44;11.50;91.90
1129;DHT22;553;51.038;7.216;2023-04-24T15:30:13;11.50;91.70
1129;DHT22;553;51.038;7.216;2023-04-24T15:32:40;11.60;91.70
1129;DHT22;553;51.038;7.216;2023-04-24T15:35:07;11.70;91.10
1129;DHT22;553;51.038;7.216;2023-04-24T15:37:37;11.90;90.80
1129;DHT22;553;51.038;7.216;2023-04-24T15:40:05;11.80;90.10
1129;DHT22;553;51.038;7.216;2023-04-24T15:42:34;11.80;89.80
1129;DHT22;553;51.038;7.216;2023-04-24T15:45:02;11.70;88.70
1129;DHT22;553;51.038;7.216;2023-04-24T15:47:29;11.70;90.10
1129;DHT22;553;51.038;7.216;2023-04-24T15:49:57;11.80;89.70
1129;DHT22;553;51.038;7.216;2023-04-24T15:52:24;11.80;89.30
1129;DHT22;553;51.038;7.216;2023-04-24T15:54:51;11.80;89.90
1129;DHT22;553;51.038;7.216;2023-04-24T15:57:20;11.80;89.70
1129;DHT22;553;51.038;7.216;2023-04-24T15:59:47;11.80;89.80
1129;DHT22;553;51.038;7.216;2023-04-24T16:02:14;11.80;91.30
1129;DHT22;553;51.038;7.216;2023-04-24T16:04:47;11.70;90.10
1129;DHT22;553;51.038;7.216;2023-04-24T16:07:16;11.80;90.70
1129;DHT22;553;51.038;7.216;2023-04-24T16:09:46;11.90;89.60
1129;DHT22;553;51.038;7.216;2023-04-24T16:12:13;11.80;89.20
1129;DHT22;553;51.038;7.216;2023-04-24T16:14:40;11.70;89.70
1129;DHT22;553;51.038;7.216;2023-04-24T16:17:07;11.70;90.00
1129;DHT22;553;51.038;7.216;2023-04-24T16:19:34;11.60;90.30
1129;DHT22;553;51.038;7.216;2023-04-24T16:22:03;11.60;91.30
1129;DHT22;553;51.038;7.216;2023-04-24T16:24:30;11.70;90.30
1129;DHT22;553;51.038;7.216;2023-04-24T16:26:57;11.70;90.10
1129;DHT22;553;51.038;7.216;2023-04-24T16:29:23;11.60;90.40
1129;DHT22;553;51.038;7.216;2023-04-24T16:31:50;11.70;90.60
1129;DHT22;553;51.038;7.216;2023-04-24T16:34:17;11.70;90.30
1129;DHT22;553;51.038;7.216;2023-04-24T16:36:44;11.80;89.30
1129;DHT22;553;51.038;7.216;2023-04-24T16:39:11;11.60;87.60
1129;DHT22;553;51.038;7.216;2023-04-24T16:41:38;11.70;88.90
1129;DHT22;553;51.038;7.216;2023-04-24T16:44:05;11.80;88.80
1129;DHT22;553;51.038;7.216;2023-04-24T16:46:33;11.70;88.60
1129;DHT22;553;51.038;7.216;2023-04-24T16:48:59;11.80;88.80
1129;DHT22;553;51.038;7.216;2023-04-24T16:51:26;11.80;89.10